sensor_id;sensor_type;location;lat;lon;timestamp;pressure;altitude;pressure_sealevel;temperature;humidity
59588;BME280;45412;54.472;18.464;2022-07-23T00:00:06;100011.80;;;16.44;100.00
59588;BME280;45412;54.472;18.464;2022-07-23T00:03:03;100008.06;;;16.42;100.00
59588;BME280;45412;54.472;18.464;2022-07-23T00:05:51;100010.14;;;16.41;100.00
59588;BME280;45412;54.472;18.464;2022-07-23T00:08:39;100007.57;;;16.39;100.00
59588;BME280;45412;54.472;18.464;2022-07-23T00:11:28;100008.36;;;16.36;100.00
59588;BME280;45412;54.472;18.464;2022-07-23T00:14:16;100006.27;;;16.35;100.00
59588;BME280;45412;54.472;18.464;2022-07-23T00:17:04;100009.42;;;16.34;100.00
59588;BME280;45412;54.472;18.464;2022-07-23T00:19:53;100008.50;;;16.31;100.00
59588;BME280;45412;54.472;18.464;2022-07-23T00:22:49;100013.39;;;16.27;100.00
59588;BME280;45412;54.472;18.464;2022-07-23T00:25:38;100015.26;;;16.23;100.00
59588;BME280;45412;54.472;18.464;2022-07-23T00:28:26;100015.79;;;16.21;100.00
59588;BME280;45412;54.472;18.464;2022-07-23T00:31:14;100015.35;;;16.20;100.00
59588;BME280;45412;54.472;18.464;2022-07-23T00:34:03;100012.35;;;16.20;100.00
59588;BME280;45412;54.472;18.464;2022-07-23T00:36:51;100010.34;;;16.16;100.00
59588;BME280;45412;54.472;18.464;2022-07-23T00:39:41;100013.52;;;16.15;100.00
59588;BME280;45412;54.472;18.464;2022-07-23T00:42:31;100010.95;;;16.16;100.00
59588;BME280;45412;54.472;18.464;2022-07-23T00:45:20;100012.71;;;16.18;100.00
59588;BME280;45412;54.472;18.464;2022-07-23T00:48:08;100011.19;;;16.17;100.00
59588;BME280;45412;54.472;18.464;2022-07-23T00:50:56;100008.44;;;16.18;100.00
59588;BME280;45412;54.472;18.464;2022-07-23T00:53:45;100006.23;;;16.20;100.00
59588;BME280;45412;54.472;18.464;2022-07-23T00:56:34;100008.59;;;16.23;100.00
59588;BME280;45412;54.472;18.464;2022-07-23T00:59:22;100010.75;;;16.25;100.00
59588;BME280;45412;54.472;18.464;2022-07-23T01:02:10;100009.20;;;16.24;100.00
59588;BME280;45412;54.472;18.464;2022-07-23T01:04:58;100008.59;;;16.25;100.00
59588;BME280;45412;54.472;18.464;2022-07-23T01:07:46;100010.70;;;16.24;100.00
59588;BME280;45412;54.472;18.464;2022-07-23T01:10:38;100007.16;;;16.22;100.00
59588;BME280;45412;54.472;18.464;2022-07-23T01:13:26;100004.98;;;16.22;100.00
59588;BME280;45412;54.472;18.464;2022-07-23T01:16:14;100002.56;;;16.21;100.00
59588;BME280;45412;54.472;18.464;2022-07-23T01:19:03;99997.30;;;16.20;100.00
59588;BME280;45412;54.472;18.464;2022-07-23T01:21:57;99993.58;;;16.18;100.00
59588;BME280;45412;54.472;18.464;2022-07-23T01:24:46;99988.89;;;16.15;100.00
59588;BME280;45412;54.472;18.464;2022-07-23T01:27:36;99981.19;;;16.06;100.00
59588;BME280;45412;54.472;18.464;2022-07-23T01:30:25;99988.14;;;16.03;100.00
59588;BME280;45412;54.472;18.464;2022-07-23T01:33:14;99986.65;;;15.96;100.00
59588;BME280;45412;54.472;18.464;2022-07-23T01:36:03;99988.83;;;15.92;100.00
59588;BME280;45412;54.472;18.464;2022-07-23T01:38:51;99989.41;;;15.90;100.00
59588;BME280;45412;54.472;18.464;2022-07-23T01:41:41;99987.91;;;15.86;100.00
59588;BME280;45412;54.472;18.464;2022-07-23T01:44:32;99985.21;;;15.84;100.00
59588;BME280;45412;54.472;18.464;2022-07-23T01:47:21;99980.88;;;15.82;100.00
59588;BME280;45412;54.472;18.464;2022-07-23T01:50:13;99975.19;;;15.80;100.00
59588;BME280;45412;54.472;18.464;2022-07-23T01:53:04;99975.81;;;15.77;100.00
59588;BME280;45412;54.472;18.464;2022-07-23T01:55:55;99974.36;;;15.74;100.00
59588;BME280;45412;54.472;18.464;2022-07-23T01:58:43;99974.85;;;15.71;100.00
59588;BME280;45412;54.472;18.464;2022-07-23T02:01:32;99971.55;;;15.66;100.00
59588;BME280;45412;54.472;18.464;2022-07-23T02:04:21;99965.88;;;15.62;100.00
59588;BME280;45412;54.472;18.464;2022-07-23T02:07:11;99962.66;;;15.58;100.00
59588;BME280;45412;54.472;18.464;2022-07-23T02:09:59;99963.18;;;15.55;100.00
59588;BME280;45412;54.472;18.464;2022-07-23T02:12:47;99965.27;;;15.54;100.00
59588;BME280;45412;54.472;18.464;2022-07-23T02:15:35;99969.20;;;15.50;100.00
59588;BME280;45412;54.472;18.464;2022-07-23T02:18:23;99972.87;;;15.48;100.00
59588;BME280;45412;54.472;18.464;2022-07-23T02:21:12;99972.16;;;15.44;100.00
59588;BME280;45412;54.472;18.464;2022-07-23T02:24:00;99972.21;;;15.42;100.00
59588;BME280;45412;54.472;18.464;2022-07-23T02:26:48;99973.87;;;15.39;100.00
59588;BME280;45412;54.472;18.464;2022-07-23T02:29:37;99977.56;;;15.38;100.00
59588;BME280;45412;54.472;18.464;2022-07-23T02:32:25;99980.08;;;15.34;100.00
59588;BME280;45412;54.472;18.464;2022-07-23T02:35:14;99982.95;;;15.31;100.00
59588;BME280;45412;54.472;18.464;2022-07-23T02:38:02;99980.84;;;15.26;100.00
59588;BME280;45412;54.472;18.464;2022-07-23T02:40:51;99981.27;;;15.22;100.00
59588;BME280;45412;54.472;18.464;2022-07-23T02:43:39;99975.02;;;15.19;100.00
59588;BME280;45412;54.472;18.464;2022-07-23T02:46:27;99972.41;;;15.18;100.00
59588;BME280;45412;54.472;18.464;2022-07-23T02:49:16;99969.52;;;15.17;100.00
59588;BME280;45412;54.472;18.464;2022-07-23T02:52:06;99968.84;;;15.14;100.00
59588;BME280;45412;54.472;18.464;2022-07-23T02:54:54;99967.52;;;15.13;100.00
59588;BME280;45412;54.472;18.464;2022-07-23T02:57:42;99971.23;;;15.11;100.00
59588;BME280;45412;54.472;18.464;2022-07-23T03:00:31;99968.98;;;15.11;100.00
59588;BME280;45412;54.472;18.464;2022-07-23T03:03:20;99965.84;;;15.08;100.00
59588;BME280;45412;54.472;18.464;2022-07-23T03:06:08;99968.85;;;15.14;100.00
59588;BME280;45412;54.472;18.464;2022-07-23T03:08:58;99966.92;;;15.15;100.00
59588;BME280;45412;54.472;18.464;2022-07-23T03:11:47;99967.37;;;15.18;100.00
59588;BME280;45412;54.472;18.464;2022-07-23T03:14:35;99972.15;;;15.19;100.00
59588;BME280;45412;54.472;18.464;2022-07-23T03:17:23;99971.75;;;15.21;100.00
59588;BME280;45412;54.472;18.464;2022-07-23T03:20:12;99970.65;;;15.23;100.00
59588;BME280;45412;54.472;18.464;2022-07-23T03:23:00;99970.64;;;15.28;100.00
59588;BME280;45412;54.472;18.464;2022-07-23T03:25:49;99969.98;;;15.34;100.00
59588;BME280;45412;54.472;18.464;2022-07-23T03:28:41;99972.17;;;15.42;100.00
59588;BME280;45412;54.472;18.464;2022-07-23T03:31:30;99968.76;;;15.49;100.00
59588;BME280;45412;54.472;18.464;2022-07-23T03:34:19;99978.27;;;15.56;100.00
59588;BME280;45412;54.472;18.464;2022-07-23T03:37:07;99980.47;;;15.61;100.00
59588;BME280;45412;54.472;18.464;2022-07-23T03:39:56;99978.21;;;15.68;100.00
59588;BME280;45412;54.472;18.464;2022-07-23T03:42:46;99970.50;;;15.77;100.00
59588;BME280;45412;54.472;18.464;2022-07-23T03:45:34;99964.34;;;15.83;100.00
59588;BME280;45412;54.472;18.464;2022-07-23T03:48:22;99960.06;;;15.90;100.00
59588;BME280;45412;54.472;18.464;2022-07-23T03:51:10;99960.64;;;15.98;100.00
59588;BME280;45412;54.472;18.464;2022-07-23T03:53:59;99958.02;;;16.03;100.00
59588;BME280;45412;54.472;18.464;2022-07-23T03:56:47;99964.09;;;16.09;100.00
59588;BME280;45412;54.472;18.464;2022-07-23T03:59:35;99954.67;;;16.06;100.00
59588;BME280;45412;54.472;18.464;2022-07-23T04:02:24;99962.67;;;16.12;100.00
59588;BME280;45412;54.472;18.464;2022-07-23T04:05:12;99956.52;;;16.12;100.00
59588;BME280;45412;54.472;18.464;2022-07-23T04:08:01;99958.35;;;16.14;100.00
59588;BME280;45412;54.472;18.464;2022-07-23T04:10:49;99956.05;;;16.15;99.99
59588;BME280;45412;54.472;18.464;2022-07-23T04:13:37;99954.42;;;16.19;100.00
59588;BME280;45412;54.472;18.464;2022-07-23T04:16:25;99946.55;;;16.23;99.94
59588;BME280;45412;54.472;18.464;2022-07-23T04:19:14;99944.45;;;16.27;99.82
59588;BME280;45412;54.472;18.464;2022-07-23T04:22:13;99942.23;;;16.29;99.15
59588;BME280;45412;54.472;18.464;2022-07-23T04:25:02;99941.88;;;16.33;98.75
59588;BME280;45412;54.472;18.464;2022-07-23T04:27:50;99937.99;;;16.38;98.37
59588;BME280;45412;54.472;18.464;2022-07-23T04:30:38;99939.46;;;16.46;98.36
59588;BME280;45412;54.472;18.464;2022-07-23T04:33:27;99938.25;;;16.52;97.94
59588;BME280;45412;54.472;18.464;2022-07-23T04:36:16;99932.83;;;16.56;97.28
59588;BME280;45412;54.472;18.464;2022-07-23T04:39:05;99926.13;;;16.59;97.24
59588;BME280;45412;54.472;18.464;2022-07-23T04:41:54;99926.73;;;16.67;96.67
59588;BME280;45412;54.472;18.464;2022-07-23T04:44:43;99925.41;;;16.74;96.47
59588;BME280;45412;54.472;18.464;2022-07-23T04:47:31;99929.58;;;16.82;95.86
59588;BME280;45412;54.472;18.464;2022-07-23T04:50:21;99930.33;;;16.92;95.46
59588;BME280;45412;54.472;18.464;2022-07-23T04:53:11;99927.27;;;17.09;95.00
59588;BME280;45412;54.472;18.464;2022-07-23T04:56:00;99920.20;;;17.29;93.63
59588;BME280;45412;54.472;18.464;2022-07-23T04:58:49;99917.33;;;17.63;92.47
59588;BME280;45412;54.472;18.464;2022-07-23T05:01:37;99913.74;;;18.15;91.04
59588;BME280;45412;54.472;18.464;2022-07-23T05:04:25;99912.03;;;18.64;88.83
59588;BME280;45412;54.472;18.464;2022-07-23T05:07:13;99910.97;;;19.33;86.85
59588;BME280;45412;54.472;18.464;2022-07-23T05:10:01;99916.40;;;19.76;83.08
59588;BME280;45412;54.472;18.464;2022-07-23T05:12:50;99918.30;;;19.84;81.10
59588;BME280;45412;54.472;18.464;2022-07-23T05:15:38;99917.92;;;19.92;79.03
59588;BME280;45412;54.472;18.464;2022-07-23T05:18:26;99914.87;;;20.22;78.28
59588;BME280;45412;54.472;18.464;2022-07-23T05:21:14;99906.86;;;20.60;75.97
59588;BME280;45412;54.472;18.464;2022-07-23T05:24:04;99899.67;;;21.27;73.94
59588;BME280;45412;54.472;18.464;2022-07-23T05:26:52;99893.36;;;22.19;70.27
59588;BME280;45412;54.472;18.464;2022-07-23T05:29:41;99900.88;;;23.20;66.44
59588;BME280;45412;54.472;18.464;2022-07-23T05:32:32;99903.80;;;24.07;61.74
59588;BME280;45412;54.472;18.464;2022-07-23T05:35:27;99894.02;;;24.83;58.33
59588;BME280;45412;54.472;18.464;2022-07-23T05:38:38;99891.49;;;25.56;54.91
59588;BME280;45412;54.472;18.464;2022-07-23T05:41:27;99892.30;;;26.16;53.67
59588;BME280;45412;54.472;18.464;2022-07-23T05:44:15;99886.58;;;26.75;50.94
59588;BME280;45412;54.472;18.464;2022-07-23T05:47:04;99883.52;;;27.37;49.92
59588;BME280;45412;54.472;18.464;2022-07-23T05:49:52;99886.77;;;27.95;47.41
59588;BME280;45412;54.472;18.464;2022-07-23T05:52:54;99886.67;;;28.34;45.69
59588;BME280;45412;54.472;18.464;2022-07-23T05:56:02;99880.39;;;28.97;44.21
59588;BME280;45412;54.472;18.464;2022-07-23T05:58:51;99881.96;;;29.41;43.09
59588;BME280;45412;54.472;18.464;2022-07-23T06:01:39;99879.05;;;29.79;41.68
59588;BME280;45412;54.472;18.464;2022-07-23T06:04:30;99869.85;;;30.31;40.95
59588;BME280;45412;54.472;18.464;2022-07-23T06:07:38;99871.73;;;30.92;38.72
59588;BME280;45412;54.472;18.464;2022-07-23T06:10:27;99873.41;;;31.40;38.10
59588;BME280;45412;54.472;18.464;2022-07-23T06:13:18;99865.66;;;32.00;36.44
59588;BME280;45412;54.472;18.464;2022-07-23T06:16:06;99859.41;;;32.49;35.31
59588;BME280;45412;54.472;18.464;2022-07-23T06:18:55;99860.80;;;32.57;33.37
59588;BME280;45412;54.472;18.464;2022-07-23T06:21:45;99866.52;;;32.66;33.81
59588;BME280;45412;54.472;18.464;2022-07-23T06:24:37;99854.05;;;32.99;33.66
59588;BME280;45412;54.472;18.464;2022-07-23T06:27:25;99840.62;;;33.38;33.24
59588;BME280;45412;54.472;18.464;2022-07-23T06:30:13;99839.88;;;33.81;32.19
59588;BME280;45412;54.472;18.464;2022-07-23T06:33:05;99831.96;;;33.88;31.24
59588;BME280;45412;54.472;18.464;2022-07-23T06:35:53;99821.09;;;33.54;31.00
59588;BME280;45412;54.472;18.464;2022-07-23T06:38:41;99822.47;;;33.50;32.36
59588;BME280;45412;54.472;18.464;2022-07-23T06:41:31;99835.91;;;33.78;31.72
59588;BME280;45412;54.472;18.464;2022-07-23T06:44:20;99848.36;;;33.88;31.38
59588;BME280;45412;54.472;18.464;2022-07-23T06:47:09;99857.14;;;34.09;31.08
59588;BME280;45412;54.472;18.464;2022-07-23T06:49:57;99859.27;;;34.15;30.48
59588;BME280;45412;54.472;18.464;2022-07-23T06:52:49;99854.92;;;34.10;30.72
59588;BME280;45412;54.472;18.464;2022-07-23T06:55:37;99858.91;;;34.52;29.98
59588;BME280;45412;54.472;18.464;2022-07-23T06:58:27;99859.73;;;34.74;29.50
59588;BME280;45412;54.472;18.464;2022-07-23T07:01:16;99870.19;;;34.84;29.47
59588;BME280;45412;54.472;18.464;2022-07-23T07:04:04;99868.08;;;35.11;28.84
59588;BME280;45412;54.472;18.464;2022-07-23T07:06:54;99865.52;;;34.99;28.56
59588;BME280;45412;54.472;18.464;2022-07-23T07:09:42;99859.13;;;35.25;27.88
59588;BME280;45412;54.472;18.464;2022-07-23T07:12:34;99851.61;;;35.11;28.11
59588;BME280;45412;54.472;18.464;2022-07-23T07:15:22;99847.20;;;34.93;28.31
59588;BME280;45412;54.472;18.464;2022-07-23T07:18:10;99847.49;;;34.81;28.06
59588;BME280;45412;54.472;18.464;2022-07-23T07:21:00;99855.92;;;33.78;29.15
59588;BME280;45412;54.472;18.464;2022-07-23T07:23:48;99859.92;;;32.92;30.38
59588;BME280;45412;54.472;18.464;2022-07-23T07:26:36;99869.10;;;32.63;30.58
59588;BME280;45412;54.472;18.464;2022-07-23T07:29:26;99864.95;;;31.91;31.89
59588;BME280;45412;54.472;18.464;2022-07-23T07:32:16;99854.20;;;32.41;31.87
59588;BME280;45412;54.472;18.464;2022-07-23T07:35:25;99842.66;;;33.27;30.54
59588;BME280;45412;54.472;18.464;2022-07-23T07:38:13;99843.82;;;33.25;29.54
59588;BME280;45412;54.472;18.464;2022-07-23T07:41:01;99842.88;;;33.43;29.89
59588;BME280;45412;54.472;18.464;2022-07-23T07:43:50;99843.08;;;33.69;29.26
59588;BME280;45412;54.472;18.464;2022-07-23T07:46:38;99845.33;;;34.08;29.34
59588;BME280;45412;54.472;18.464;2022-07-23T07:49:27;99843.97;;;33.68;30.02
59588;BME280;45412;54.472;18.464;2022-07-23T07:52:39;99843.17;;;33.28;30.16
59588;BME280;45412;54.472;18.464;2022-07-23T07:55:29;99845.23;;;32.75;30.62
59588;BME280;45412;54.472;18.464;2022-07-23T07:58:18;99843.10;;;32.65;30.44
59588;BME280;45412;54.472;18.464;2022-07-23T08:01:06;99843.58;;;33.00;30.74
59588;BME280;45412;54.472;18.464;2022-07-23T08:03:56;99848.02;;;32.39;30.90
59588;BME280;45412;54.472;18.464;2022-07-23T08:06:44;99845.23;;;32.01;31.39
59588;BME280;45412;54.472;18.464;2022-07-23T08:09:33;99843.41;;;31.56;32.52
59588;BME280;45412;54.472;18.464;2022-07-23T08:12:21;99835.54;;;32.31;31.34
59588;BME280;45412;54.472;18.464;2022-07-23T08:15:09;99833.73;;;33.27;30.09
59588;BME280;45412;54.472;18.464;2022-07-23T08:18:01;99836.30;;;33.77;29.01
59588;BME280;45412;54.472;18.464;2022-07-23T08:20:49;99834.84;;;33.36;29.40
59588;BME280;45412;54.472;18.464;2022-07-23T08:23:37;99841.87;;;32.90;29.84
59588;BME280;45412;54.472;18.464;2022-07-23T08:26:25;99845.30;;;33.00;29.68
59588;BME280;45412;54.472;18.464;2022-07-23T08:29:13;99853.05;;;32.34;30.47
59588;BME280;45412;54.472;18.464;2022-07-23T08:32:03;99855.23;;;31.84;31.76
59588;BME280;45412;54.472;18.464;2022-07-23T08:35:20;99841.50;;;32.84;31.07
59588;BME280;45412;54.472;18.464;2022-07-23T08:38:10;99833.05;;;33.90;29.58
59588;BME280;45412;54.472;18.464;2022-07-23T08:40:58;99839.46;;;34.19;27.95
59588;BME280;45412;54.472;18.464;2022-07-23T08:43:47;99841.09;;;32.95;29.89
59588;BME280;45412;54.472;18.464;2022-07-23T08:46:39;99834.84;;;33.24;29.78
59588;BME280;45412;54.472;18.464;2022-07-23T08:49:31;99825.98;;;33.68;29.68
59588;BME280;45412;54.472;18.464;2022-07-23T08:52:21;99832.35;;;34.61;28.32
59588;BME280;45412;54.472;18.464;2022-07-23T08:55:19;99832.44;;;35.08;27.65
59588;BME280;45412;54.472;18.464;2022-07-23T08:58:07;99830.86;;;35.86;26.31
59588;BME280;45412;54.472;18.464;2022-07-23T09:01:00;99830.37;;;36.14;25.91
59588;BME280;45412;54.472;18.464;2022-07-23T09:03:53;99824.89;;;36.66;25.52
59588;BME280;45412;54.472;18.464;2022-07-23T09:06:42;99824.55;;;37.31;24.61
59588;BME280;45412;54.472;18.464;2022-07-23T09:09:31;99828.09;;;37.08;24.80
59588;BME280;45412;54.472;18.464;2022-07-23T09:12:20;99830.34;;;36.50;24.71
59588;BME280;45412;54.472;18.464;2022-07-23T09:15:08;99830.05;;;37.00;24.69
59588;BME280;45412;54.472;18.464;2022-07-23T09:17:57;99824.20;;;37.76;23.49
59588;BME280;45412;54.472;18.464;2022-07-23T09:20:45;99826.08;;;37.94;23.31
59588;BME280;45412;54.472;18.464;2022-07-23T09:23:58;99821.09;;;37.79;23.24
59588;BME280;45412;54.472;18.464;2022-07-23T09:26:48;99822.63;;;36.75;24.38
59588;BME280;45412;54.472;18.464;2022-07-23T09:29:38;99826.80;;;35.82;25.57
59588;BME280;45412;54.472;18.464;2022-07-23T09:32:32;99826.52;;;34.85;26.44
59588;BME280;45412;54.472;18.464;2022-07-23T09:35:21;99817.20;;;33.72;28.04
59588;BME280;45412;54.472;18.464;2022-07-23T09:38:09;99809.02;;;33.45;28.81
59588;BME280;45412;54.472;18.464;2022-07-23T09:41:10;99804.21;;;32.98;29.64
59588;BME280;45412;54.472;18.464;2022-07-23T09:44:07;99807.92;;;32.31;30.30
59588;BME280;45412;54.472;18.464;2022-07-23T09:46:59;99802.14;;;32.20;30.83
59588;BME280;45412;54.472;18.464;2022-07-23T09:52:49;99800.04;;;32.18;30.97
59588;BME280;45412;54.472;18.464;2022-07-23T09:55:38;99798.61;;;31.67;32.13
59588;BME280;45412;54.472;18.464;2022-07-23T09:58:27;99799.23;;;31.87;31.62
59588;BME280;45412;54.472;18.464;2022-07-23T10:01:16;99801.48;;;31.97;31.48
59588;BME280;45412;54.472;18.464;2022-07-23T10:04:05;99810.67;;;31.13;32.16
59588;BME280;45412;54.472;18.464;2022-07-23T10:07:25;99819.77;;;30.25;33.83
59588;BME280;45412;54.472;18.464;2022-07-23T10:10:34;99825.81;;;29.62;35.27
59588;BME280;45412;54.472;18.464;2022-07-23T10:13:44;99832.66;;;28.86;36.62
59588;BME280;45412;54.472;18.464;2022-07-23T10:17:09;99834.73;;;28.08;38.14
59588;BME280;45412;54.472;18.464;2022-07-23T10:19:58;99839.95;;;27.23;39.63
59588;BME280;45412;54.472;18.464;2022-07-23T10:26:24;99857.44;;;26.15;42.87
59588;BME280;45412;54.472;18.464;2022-07-23T10:29:57;99865.83;;;25.72;44.50
59588;BME280;45412;54.472;18.464;2022-07-23T10:36:24;99864.55;;;24.92;48.00
59588;BME280;45412;54.472;18.464;2022-07-23T10:39:35;99866.25;;;24.73;49.09
59588;BME280;45412;54.472;18.464;2022-07-23T10:42:35;99869.83;;;24.59;49.90
59588;BME280;45412;54.472;18.464;2022-07-23T10:45:30;99866.27;;;24.44;49.99
59588;BME280;45412;54.472;18.464;2022-07-23T10:48:24;99862.58;;;24.45;50.07
59588;BME280;45412;54.472;18.464;2022-07-23T10:51:19;99862.42;;;24.56;49.99
59588;BME280;45412;54.472;18.464;2022-07-23T10:54:21;99860.73;;;24.64;49.35
59588;BME280;45412;54.472;18.464;2022-07-23T10:57:11;99858.52;;;24.69;49.36
59588;BME280;45412;54.472;18.464;2022-07-23T11:00:28;99861.34;;;24.68;49.00
59588;BME280;45412;54.472;18.464;2022-07-23T11:03:35;99854.23;;;24.64;49.17
59588;BME280;45412;54.472;18.464;2022-07-23T11:10:04;99825.61;;;24.35;50.06
59588;BME280;45412;54.472;18.464;2022-07-23T11:12:55;99851.88;;;24.21;50.47
59588;BME280;45412;54.472;18.464;2022-07-23T11:18:58;99878.32;;;23.80;51.16
59588;BME280;45412;54.472;18.464;2022-07-23T11:21:56;99876.17;;;23.56;52.16
59588;BME280;45412;54.472;18.464;2022-07-23T11:24:51;99883.39;;;23.40;52.62
59588;BME280;45412;54.472;18.464;2022-07-23T11:28:18;99887.83;;;23.21;53.00
59588;BME280;45412;54.472;18.464;2022-07-23T11:31:28;99877.55;;;23.02;53.80
59588;BME280;45412;54.472;18.464;2022-07-23T11:34:36;99878.77;;;22.90;54.03
59588;BME280;45412;54.472;18.464;2022-07-23T11:40:25;99888.94;;;22.61;55.59
59588;BME280;45412;54.472;18.464;2022-07-23T11:43:14;99890.63;;;22.46;56.56
59588;BME280;45412;54.472;18.464;2022-07-23T11:46:02;99891.33;;;22.32;57.62
59588;BME280;45412;54.472;18.464;2022-07-23T11:49:03;99901.59;;;22.20;58.54
59588;BME280;45412;54.472;18.464;2022-07-23T11:52:14;99907.14;;;22.06;59.99
59588;BME280;45412;54.472;18.464;2022-07-23T11:55:09;99912.13;;;21.99;62.21
59588;BME280;45412;54.472;18.464;2022-07-23T11:57:59;99904.52;;;21.85;63.65
59588;BME280;45412;54.472;18.464;2022-07-23T12:00:47;99908.21;;;21.70;65.28
59588;BME280;45412;54.472;18.464;2022-07-23T12:03:36;99903.43;;;21.57;66.48
59588;BME280;45412;54.472;18.464;2022-07-23T12:06:24;99900.23;;;21.43;68.12
59588;BME280;45412;54.472;18.464;2022-07-23T12:09:13;99898.37;;;21.17;68.90
59588;BME280;45412;54.472;18.464;2022-07-23T12:12:15;99888.53;;;21.03;69.91
59588;BME280;45412;54.472;18.464;2022-07-23T12:15:09;99872.95;;;20.93;70.09
59588;BME280;45412;54.472;18.464;2022-07-23T12:18:01;99860.70;;;20.81;70.77
59588;BME280;45412;54.472;18.464;2022-07-23T12:21:05;99853.02;;;20.78;72.76
59588;BME280;45412;54.472;18.464;2022-07-23T12:24:07;99851.70;;;20.69;70.83
59588;BME280;45412;54.472;18.464;2022-07-23T12:27:11;99851.23;;;20.61;71.88
59588;BME280;45412;54.472;18.464;2022-07-23T12:30:19;99853.13;;;20.57;73.34
59588;BME280;45412;54.472;18.464;2022-07-23T12:33:11;99854.73;;;20.49;74.37
59588;BME280;45412;54.472;18.464;2022-07-23T12:36:06;99853.41;;;20.35;74.78
59588;BME280;45412;54.472;18.464;2022-07-23T12:38:54;99861.72;;;20.22;75.30
59588;BME280;45412;54.472;18.464;2022-07-23T12:41:53;99872.33;;;20.15;76.32
59588;BME280;45412;54.472;18.464;2022-07-23T12:44:41;99874.86;;;20.15;77.09
59588;BME280;45412;54.472;18.464;2022-07-23T12:48:05;99880.88;;;20.23;77.58
59588;BME280;45412;54.472;18.464;2022-07-23T12:51:00;99880.05;;;20.52;77.25
59588;BME280;45412;54.472;18.464;2022-07-23T12:53:59;99877.16;;;20.99;76.69
59588;BME280;45412;54.472;18.464;2022-07-23T12:56:52;99876.91;;;21.50;75.60
59588;BME280;45412;54.472;18.464;2022-07-23T12:59:41;99873.40;;;21.98;74.32
59588;BME280;45412;54.472;18.464;2022-07-23T13:02:45;99871.67;;;22.30;72.37
59588;BME280;45412;54.472;18.464;2022-07-23T13:05:33;99862.55;;;22.54;71.62
59588;BME280;45412;54.472;18.464;2022-07-23T13:08:23;99861.71;;;22.66;70.59
59588;BME280;45412;54.472;18.464;2022-07-23T13:11:11;99862.15;;;22.72;69.67
59588;BME280;45412;54.472;18.464;2022-07-23T13:14:01;99857.73;;;22.74;68.04
59588;BME280;45412;54.472;18.464;2022-07-23T13:16:54;99858.06;;;22.73;66.95
59588;BME280;45412;54.472;18.464;2022-07-23T13:19:43;99853.63;;;22.56;65.88
59588;BME280;45412;54.472;18.464;2022-07-23T13:22:34;99852.63;;;22.55;65.61
59588;BME280;45412;54.472;18.464;2022-07-23T13:25:24;99851.28;;;22.65;65.97
59588;BME280;45412;54.472;18.464;2022-07-23T13:28:14;99848.45;;;22.71;66.29
59588;BME280;45412;54.472;18.464;2022-07-23T13:31:03;99850.17;;;22.58;66.21
59588;BME280;45412;54.472;18.464;2022-07-23T13:33:51;99841.61;;;22.73;66.20
59588;BME280;45412;54.472;18.464;2022-07-23T13:36:40;99843.52;;;22.98;65.87
59588;BME280;45412;54.472;18.464;2022-07-23T13:39:28;99838.66;;;23.19;65.92
59588;BME280;45412;54.472;18.464;2022-07-23T13:42:24;99837.65;;;23.43;64.32
59588;BME280;45412;54.472;18.464;2022-07-23T13:45:14;99829.45;;;23.45;63.70
59588;BME280;45412;54.472;18.464;2022-07-23T13:48:04;99819.69;;;23.29;63.01
59588;BME280;45412;54.472;18.464;2022-07-23T13:50:54;99817.94;;;23.24;63.56
59588;BME280;45412;54.472;18.464;2022-07-23T13:53:42;99822.65;;;23.32;64.14
59588;BME280;45412;54.472;18.464;2022-07-23T13:56:30;99822.23;;;23.35;63.27
59588;BME280;45412;54.472;18.464;2022-07-23T13:59:18;99821.31;;;23.33;62.70
59588;BME280;45412;54.472;18.464;2022-07-23T14:02:07;99821.33;;;23.29;63.22
59588;BME280;45412;54.472;18.464;2022-07-23T14:05:10;99817.10;;;23.41;63.15
59588;BME280;45412;54.472;18.464;2022-07-23T14:07:58;99813.29;;;23.52;61.44
59588;BME280;45412;54.472;18.464;2022-07-23T14:10:46;99815.85;;;23.38;60.47
59588;BME280;45412;54.472;18.464;2022-07-23T14:13:34;99813.09;;;23.25;62.42
59588;BME280;45412;54.472;18.464;2022-07-23T14:16:23;99816.17;;;23.24;62.64
59588;BME280;45412;54.472;18.464;2022-07-23T14:19:11;99815.96;;;23.22;61.54
59588;BME280;45412;54.472;18.464;2022-07-23T14:21:59;99814.34;;;23.25;61.22
59588;BME280;45412;54.472;18.464;2022-07-23T14:24:47;99815.34;;;23.22;61.40
59588;BME280;45412;54.472;18.464;2022-07-23T14:27:37;99813.33;;;23.22;61.64
59588;BME280;45412;54.472;18.464;2022-07-23T14:30:27;99809.21;;;23.29;61.61
59588;BME280;45412;54.472;18.464;2022-07-23T14:33:21;99807.15;;;23.32;61.21
59588;BME280;45412;54.472;18.464;2022-07-23T14:36:13;99805.61;;;23.44;59.90
59588;BME280;45412;54.472;18.464;2022-07-23T14:39:03;99806.33;;;23.63;58.33
59588;BME280;45412;54.472;18.464;2022-07-23T14:41:52;99805.93;;;23.55;57.78
59588;BME280;45412;54.472;18.464;2022-07-23T14:44:40;99809.54;;;23.38;57.47
59588;BME280;45412;54.472;18.464;2022-07-23T14:47:30;99807.16;;;23.25;58.93
59588;BME280;45412;54.472;18.464;2022-07-23T14:50:18;99804.99;;;23.22;58.85
59588;BME280;45412;54.472;18.464;2022-07-23T14:53:06;99809.96;;;23.06;58.90
59588;BME280;45412;54.472;18.464;2022-07-23T14:55:55;99805.29;;;23.04;59.51
59588;BME280;45412;54.472;18.464;2022-07-23T14:58:44;99804.94;;;23.20;59.79
59588;BME280;45412;54.472;18.464;2022-07-23T15:01:36;99807.13;;;23.33;58.99
59588;BME280;45412;54.472;18.464;2022-07-23T15:04:24;99802.85;;;23.37;58.14
59588;BME280;45412;54.472;18.464;2022-07-23T15:07:24;99803.30;;;23.31;58.32
59588;BME280;45412;54.472;18.464;2022-07-23T15:10:13;99808.91;;;23.29;59.06